sensor_id;sensor_type;location;lat;lon;timestamp;temperature;humidity
11848;DHT22;5983;49.966;8.052;2024-01-27T00:02:12;6.10;99.90
11848;DHT22;5983;49.966;8.052;2024-01-27T00:04:39;6.00;99.90
11848;DHT22;5983;49.966;8.052;2024-01-27T00:07:06;5.90;99.90
11848;DHT22;5983;49.966;8.052;2024-01-27T00:09:32;5.90;99.90
11848;DHT22;5983;49.966;8.052;2024-01-27T00:11:59;5.80;99.90
11848;DHT22;5983;49.966;8.052;2024-01-27T00:14:26;5.80;99.90
11848;DHT22;5983;49.966;8.052;2024-01-27T00:16:53;5.70;99.90
11848;DHT22;5983;49.966;8.052;2024-01-27T00:19:21;5.70;99.90
11848;DHT22;5983;49.966;8.052;2024-01-27T00:21:48;5.70;99.90
11848;DHT22;5983;49.966;8.052;2024-01-27T00:27:14;5.60;99.90
11848;DHT22;5983;49.966;8.052;2024-01-27T00:29:41;5.60;99.90
11848;DHT22;5983;49.966;8.052;2024-01-27T00:32:08;5.60;99.90
11848;DHT22;5983;49.966;8.052;2024-01-27T00:34:36;5.60;99.90
11848;DHT22;5983;49.966;8.052;2024-01-27T00:37:03;5.50;99.90
11848;DHT22;5983;49.966;8.052;2024-01-27T00:39:31;5.40;99.90
11848;DHT22;5983;49.966;8.052;2024-01-27T00:41:58;5.30;99.90
11848;DHT22;5983;49.966;8.052;2024-01-27T00:44:24;5.30;99.90
11848;DHT22;5983;49.966;8.052;2024-01-27T00:46:51;5.30;99.90
11848;DHT22;5983;49.966;8.052;2024-01-27T00:49:18;5.20;99.90
11848;DHT22;5983;49.966;8.052;2024-01-27T00:51:47;5.10;99.90
11848;DHT22;5983;49.966;8.052;2024-01-27T00:54:13;5.00;99.90
11848;DHT22;5983;49.966;8.052;2024-01-27T00:56:40;5.00;99.90
11848;DHT22;5983;49.966;8.052;2024-01-27T00:59:07;4.90;99.90
11848;DHT22;5983;49.966;8.052;2024-01-27T01:01:34;4.90;99.90
11848;DHT22;5983;49.966;8.052;2024-01-27T01:04:00;4.80;99.90
11848;DHT22;5983;49.966;8.052;2024-01-27T01:06:27;4.80;99.90
11848;DHT22;5983;49.966;8.052;2024-01-27T01:08:55;4.80;99.90
11848;DHT22;5983;49.966;8.052;2024-01-27T01:11:22;4.80;99.90
11848;DHT22;5983;49.966;8.052;2024-01-27T01:13:49;4.80;99.90
11848;DHT22;5983;49.966;8.052;2024-01-27T01:16:16;4.80;99.90
11848;DHT22;5983;49.966;8.052;2024-01-27T01:21:31;4.80;99.90
11848;DHT22;5983;49.966;8.052;2024-01-27T01:27:21;4.70;99.90
11848;DHT22;5983;49.966;8.052;2024-01-27T01:29:48;4.50;99.90
11848;DHT22;5983;49.966;8.052;2024-01-27T01:32:15;4.50;99.90
11848;DHT22;5983;49.966;8.052;2024-01-27T01:34:41;4.40;99.90
11848;DHT22;5983;49.966;8.052;2024-01-27T01:37:08;4.40;99.90
11848;DHT22;5983;49.966;8.052;2024-01-27T01:39:35;4.40;99.90
11848;DHT22;5983;49.966;8.052;2024-01-27T01:42:02;4.30;99.90
11848;DHT22;5983;49.966;8.052;2024-01-27T01:44:30;4.30;99.90
11848;DHT22;5983;49.966;8.052;2024-01-27T01:46:58;4.20;99.90
11848;DHT22;5983;49.966;8.052;2024-01-27T01:49:25;4.20;99.90
11848;DHT22;5983;49.966;8.052;2024-01-27T01:51:52;4.10;99.90
11848;DHT22;5983;49.966;8.052;2024-01-27T01:54:19;4.10;99.90
11848;DHT22;5983;49.966;8.052;2024-01-27T01:56:47;4.00;99.90
11848;DHT22;5983;49.966;8.052;2024-01-27T01:59:15;3.90;99.90
11848;DHT22;5983;49.966;8.052;2024-01-27T02:01:43;3.80;99.90
11848;DHT22;5983;49.966;8.052;2024-01-27T02:04:09;3.80;99.90
11848;DHT22;5983;49.966;8.052;2024-01-27T02:06:36;3.70;99.90
11848;DHT22;5983;49.966;8.052;2024-01-27T02:09:03;3.60;99.90
11848;DHT22;5983;49.966;8.052;2024-01-27T02:11:30;3.50;99.90
11848;DHT22;5983;49.966;8.052;2024-01-27T02:13:57;3.40;99.90
11848;DHT22;5983;49.966;8.052;2024-01-27T02:16:23;3.40;99.90
11848;DHT22;5983;49.966;8.052;2024-01-27T02:18:51;3.30;99.90
11848;DHT22;5983;49.966;8.052;2024-01-27T02:21:18;3.20;99.90
11848;DHT22;5983;49.966;8.052;2024-01-27T02:23:45;3.20;99.90
11848;DHT22;5983;49.966;8.052;2024-01-27T02:26:13;3.10;99.90
11848;DHT22;5983;49.966;8.052;2024-01-27T02:28:40;3.10;99.90
11848;DHT22;5983;49.966;8.052;2024-01-27T02:31:07;3.10;99.90
11848;DHT22;5983;49.966;8.052;2024-01-27T02:33:33;3.00;99.90
11848;DHT22;5983;49.966;8.052;2024-01-27T02:36:00;3.00;99.90
11848;DHT22;5983;49.966;8.052;2024-01-27T02:38:27;3.00;99.90
11848;DHT22;5983;49.966;8.052;2024-01-27T02:40:53;3.00;99.90
11848;DHT22;5983;49.966;8.052;2024-01-27T02:43:21;3.00;99.90
11848;DHT22;5983;49.966;8.052;2024-01-27T02:45:48;3.00;99.90
11848;DHT22;5983;49.966;8.052;2024-01-27T02:48:15;3.10;99.90
11848;DHT22;5983;49.966;8.052;2024-01-27T02:50:41;3.10;99.90
11848;DHT22;5983;49.966;8.052;2024-01-27T02:53:08;3.00;99.90
11848;DHT22;5983;49.966;8.052;2024-01-27T02:55:35;3.00;99.90
11848;DHT22;5983;49.966;8.052;2024-01-27T02:58:02;3.00;99.90
11848;DHT22;5983;49.966;8.052;2024-01-27T03:00:30;2.90;99.90
11848;DHT22;5983;49.966;8.052;2024-01-27T03:02:56;2.80;99.90
11848;DHT22;5983;49.966;8.052;2024-01-27T03:05:24;2.80;99.90
11848;DHT22;5983;49.966;8.052;2024-01-27T03:07:50;2.80;99.90
11848;DHT22;5983;49.966;8.052;2024-01-27T03:10:17;2.70;99.90
11848;DHT22;5983;49.966;8.052;2024-01-27T03:12:44;2.70;99.90
11848;DHT22;5983;49.966;8.052;2024-01-27T03:15:11;2.60;99.90
11848;DHT22;5983;49.966;8.052;2024-01-27T03:17:39;2.60;99.90
11848;DHT22;5983;49.966;8.052;2024-01-27T03:20:06;2.50;99.90
11848;DHT22;5983;49.966;8.052;2024-01-27T03:22:34;2.50;99.90
11848;DHT22;5983;49.966;8.052;2024-01-27T03:25:01;2.40;99.90
11848;DHT22;5983;49.966;8.052;2024-01-27T03:27:28;2.40;99.90
11848;DHT22;5983;49.966;8.052;2024-01-27T03:29:55;2.40;99.90
11848;DHT22;5983;49.966;8.052;2024-01-27T03:32:25;2.40;99.90
11848;DHT22;5983;49.966;8.052;2024-01-27T03:34:53;2.30;99.90
11848;DHT22;5983;49.966;8.052;2024-01-27T03:37:21;2.30;99.90
11848;DHT22;5983;49.966;8.052;2024-01-27T03:39:47;2.20;99.90
11848;DHT22;5983;49.966;8.052;2024-01-27T03:42:14;2.20;99.90
11848;DHT22;5983;49.966;8.052;2024-01-27T03:44:41;2.20;99.90
11848;DHT22;5983;49.966;8.052;2024-01-27T03:47:08;2.10;99.90
11848;DHT22;5983;49.966;8.052;2024-01-27T03:49:34;2.10;99.90
11848;DHT22;5983;49.966;8.052;2024-01-27T03:52:02;2.10;99.90
11848;DHT22;5983;49.966;8.052;2024-01-27T03:54:30;2.00;99.90
11848;DHT22;5983;49.966;8.052;2024-01-27T03:56:57;2.00;99.90
11848;DHT22;5983;49.966;8.052;2024-01-27T03:59:24;2.00;99.90
11848;DHT22;5983;49.966;8.052;2024-01-27T04:01:50;2.00;99.90
11848;DHT22;5983;49.966;8.052;2024-01-27T04:04:17;2.00;99.90
11848;DHT22;5983;49.966;8.052;2024-01-27T04:06:44;2.00;99.90
11848;DHT22;5983;49.966;8.052;2024-01-27T04:09:12;1.90;99.90
11848;DHT22;5983;49.966;8.052;2024-01-27T04:11:38;1.80;99.90
11848;DHT22;5983;49.966;8.052;2024-01-27T04:14:05;1.80;99.90
11848;DHT22;5983;49.966;8.052;2024-01-27T04:16:33;1.80;99.90
11848;DHT22;5983;49.966;8.052;2024-01-27T04:18:59;1.80;99.90
11848;DHT22;5983;49.966;8.052;2024-01-27T04:21:26;1.80;99.90
11848;DHT22;5983;49.966;8.052;2024-01-27T04:23:53;1.80;99.90
11848;DHT22;5983;49.966;8.052;2024-01-27T04:26:21;1.70;99.90
11848;DHT22;5983;49.966;8.052;2024-01-27T04:28:48;1.80;99.90
11848;DHT22;5983;49.966;8.052;2024-01-27T04:31:14;1.80;99.90
11848;DHT22;5983;49.966;8.052;2024-01-27T04:33:41;1.80;99.90
11848;DHT22;5983;49.966;8.052;2024-01-27T04:36:08;1.80;99.90
11848;DHT22;5983;49.966;8.052;2024-01-27T04:38:35;1.90;99.90
11848;DHT22;5983;49.966;8.052;2024-01-27T04:41:02;1.90;99.90
11848;DHT22;5983;49.966;8.052;2024-01-27T04:43:30;1.90;99.90
11848;DHT22;5983;49.966;8.052;2024-01-27T04:45:57;1.90;99.90
11848;DHT22;5983;49.966;8.052;2024-01-27T04:48:24;1.90;99.90
11848;DHT22;5983;49.966;8.052;2024-01-27T04:50:51;1.80;99.90
11848;DHT22;5983;49.966;8.052;2024-01-27T04:53:17;1.80;99.90
11848;DHT22;5983;49.966;8.052;2024-01-27T04:55:44;1.80;99.90
11848;DHT22;5983;49.966;8.052;2024-01-27T04:58:11;1.70;99.90
11848;DHT22;5983;49.966;8.052;2024-01-27T05:00:39;1.70;99.90
11848;DHT22;5983;49.966;8.052;2024-01-27T05:03:06;1.70;99.90
11848;DHT22;5983;49.966;8.052;2024-01-27T05:05:40;1.60;99.90
11848;DHT22;5983;49.966;8.052;2024-01-27T05:08:07;1.60;99.90
11848;DHT22;5983;49.966;8.052;2024-01-27T05:10:34;1.50;99.90
11848;DHT22;5983;49.966;8.052;2024-01-27T05:13:01;1.50;99.90
11848;DHT22;5983;49.966;8.052;2024-01-27T05:15:27;1.50;99.90
11848;DHT22;5983;49.966;8.052;2024-01-27T05:17:55;1.60;99.90
11848;DHT22;5983;49.966;8.052;2024-01-27T05:20:22;1.50;99.90
11848;DHT22;5983;49.966;8.052;2024-01-27T05:22:49;1.50;99.90
11848;DHT22;5983;49.966;8.052;2024-01-27T05:25:15;1.40;99.90
11848;DHT22;5983;49.966;8.052;2024-01-27T05:27:42;1.40;99.90
11848;DHT22;5983;49.966;8.052;2024-01-27T05:30:09;1.40;99.90
11848;DHT22;5983;49.966;8.052;2024-01-27T05:32:36;1.30;99.90
11848;DHT22;5983;49.966;8.052;2024-01-27T05:35:05;1.30;99.90
11848;DHT22;5983;49.966;8.052;2024-01-27T05:37:33;1.30;99.90
11848;DHT22;5983;49.966;8.052;2024-01-27T05:40:00;1.20;99.90
11848;DHT22;5983;49.966;8.052;2024-01-27T05:42:27;1.30;99.90
11848;DHT22;5983;49.966;8.052;2024-01-27T05:44:54;1.20;99.90
11848;DHT22;5983;49.966;8.052;2024-01-27T05:47:21;1.20;99.90
11848;DHT22;5983;49.966;8.052;2024-01-27T05:49:47;1.20;99.90
11848;DHT22;5983;49.966;8.052;2024-01-27T05:52:16;1.20;99.90
11848;DHT22;5983;49.966;8.052;2024-01-27T05:54:42;1.20;99.90
11848;DHT22;5983;49.966;8.052;2024-01-27T05:57:09;1.20;99.90
11848;DHT22;5983;49.966;8.052;2024-01-27T05:59:36;1.20;99.90
11848;DHT22;5983;49.966;8.052;2024-01-27T06:02:03;1.20;99.90
11848;DHT22;5983;49.966;8.052;2024-01-27T06:04:30;1.10;99.90
11848;DHT22;5983;49.966;8.052;2024-01-27T06:06:58;1.10;99.90
11848;DHT22;5983;49.966;8.052;2024-01-27T06:09:26;1.10;99.90
11848;DHT22;5983;49.966;8.052;2024-01-27T06:11:53;1.00;99.90
11848;DHT22;5983;49.966;8.052;2024-01-27T06:14:20;1.00;99.90
11848;DHT22;5983;49.966;8.052;2024-01-27T06:16:47;1.00;99.90
11848;DHT22;5983;49.966;8.052;2024-01-27T06:19:13;1.00;99.90
11848;DHT22;5983;49.966;8.052;2024-01-27T06:21:40;1.00;99.90
11848;DHT22;5983;49.966;8.052;2024-01-27T06:24:07;1.00;99.90
11848;DHT22;5983;49.966;8.052;2024-01-27T06:26:35;1.00;99.90
11848;DHT22;5983;49.966;8.052;2024-01-27T06:29:02;1.00;99.90
11848;DHT22;5983;49.966;8.052;2024-01-27T06:31:29;0.90;99.90
11848;DHT22;5983;49.966;8.052;2024-01-27T06:33:56;0.90;99.90
11848;DHT22;5983;49.966;8.052;2024-01-27T06:36:22;0.90;99.90
11848;DHT22;5983;49.966;8.052;2024-01-27T06:38:51;0.90;99.90
11848;DHT22;5983;49.966;8.052;2024-01-27T06:41:17;0.80;99.90
11848;DHT22;5983;49.966;8.052;2024-01-27T06:43:46;0.80;99.90
11848;DHT22;5983;49.966;8.052;2024-01-27T06:46:12;0.70;99.90
11848;DHT22;5983;49.966;8.052;2024-01-27T06:48:39;0.70;99.90
11848;DHT22;5983;49.966;8.052;2024-01-27T06:51:06;0.70;99.90
11848;DHT22;5983;49.966;8.052;2024-01-27T06:53:32;0.70;99.90
11848;DHT22;5983;49.966;8.052;2024-01-27T06:55:59;0.70;99.90
11848;DHT22;5983;49.966;8.052;2024-01-27T06:58:26;0.70;99.90
11848;DHT22;5983;49.966;8.052;2024-01-27T07:00:54;0.70;99.90
11848;DHT22;5983;49.966;8.052;2024-01-27T07:03:21;0.60;99.90
11848;DHT22;5983;49.966;8.052;2024-01-27T07:05:47;0.60;99.90
11848;DHT22;5983;49.966;8.052;2024-01-27T07:08:14;0.60;99.90
11848;DHT22;5983;49.966;8.052;2024-01-27T07:10:41;0.60;99.90
11848;DHT22;5983;49.966;8.052;2024-01-27T07:13:08;0.60;99.90
11848;DHT22;5983;49.966;8.052;2024-01-27T07:15:35;0.60;99.90
11848;DHT22;5983;49.966;8.052;2024-01-27T07:18:04;0.60;99.90
11848;DHT22;5983;49.966;8.052;2024-01-27T07:23:54;0.60;99.90
11848;DHT22;5983;49.966;8.052;2024-01-27T07:26:21;0.70;99.90
11848;DHT22;5983;49.966;8.052;2024-01-27T07:28:48;0.70;99.90
11848;DHT22;5983;49.966;8.052;2024-01-27T07:31:15;0.80;99.90
11848;DHT22;5983;49.966;8.052;2024-01-27T07:33:44;0.80;99.90
11848;DHT22;5983;49.966;8.052;2024-01-27T07:36:10;0.90;99.90
11848;DHT22;5983;49.966;8.052;2024-01-27T07:38:37;0.90;99.90
11848;DHT22;5983;49.966;8.052;2024-01-27T07:41:04;1.00;99.90
11848;DHT22;5983;49.966;8.052;2024-01-27T07:43:31;1.00;99.90
11848;DHT22;5983;49.966;8.052;2024-01-27T07:45:58;1.00;99.90
11848;DHT22;5983;49.966;8.052;2024-01-27T07:48:24;1.10;99.90
11848;DHT22;5983;49.966;8.052;2024-01-27T07:50:52;1.10;99.90
11848;DHT22;5983;49.966;8.052;2024-01-27T07:53:21;1.20;99.90
11848;DHT22;5983;49.966;8.052;2024-01-27T07:55:48;1.40;99.90
11848;DHT22;5983;49.966;8.052;2024-01-27T07:58:16;1.90;99.90
11848;DHT22;5983;49.966;8.052;2024-01-27T08:00:43;2.50;99.90
11848;DHT22;5983;49.966;8.052;2024-01-27T08:03:09;3.00;99.90
11848;DHT22;5983;49.966;8.052;2024-01-27T08:05:36;3.40;99.90
11848;DHT22;5983;49.966;8.052;2024-01-27T08:08:04;3.90;99.90
11848;DHT22;5983;49.966;8.052;2024-01-27T08:10:31;4.50;99.90
11848;DHT22;5983;49.966;8.052;2024-01-27T08:12:58;5.10;99.90
11848;DHT22;5983;49.966;8.052;2024-01-27T08:15:25;5.60;99.90
11848;DHT22;5983;49.966;8.052;2024-01-27T08:17:52;5.80;99.90
11848;DHT22;5983;49.966;8.052;2024-01-27T08:20:18;6.10;99.90
11848;DHT22;5983;49.966;8.052;2024-01-27T08:22:45;6.40;99.90
11848;DHT22;5983;49.966;8.052;2024-01-27T08:25:17;6.80;99.90
11848;DHT22;5983;49.966;8.052;2024-01-27T08:27:44;7.20;99.90
11848;DHT22;5983;49.966;8.052;2024-01-27T08:30:11;7.50;99.90
11848;DHT22;5983;49.966;8.052;2024-01-27T08:32:39;7.90;99.90
11848;DHT22;5983;49.966;8.052;2024-01-27T08:35:06;8.30;99.90
11848;DHT22;5983;49.966;8.052;2024-01-27T08:37:34;8.80;99.90
11848;DHT22;5983;49.966;8.052;2024-01-27T08:40:05;9.50;99.90
11848;DHT22;5983;49.966;8.052;2024-01-27T08:42:34;10.10;99.90
11848;DHT22;5983;49.966;8.052;2024-01-27T08:45:00;10.60;99.90
11848;DHT22;5983;49.966;8.052;2024-01-27T08:47:27;11.10;99.90
11848;DHT22;5983;49.966;8.052;2024-01-27T08:49:54;11.70;99.90
11848;DHT22;5983;49.966;8.052;2024-01-27T08:52:21;11.80;99.90
11848;DHT22;5983;49.966;8.052;2024-01-27T08:54:47;11.50;99.90
11848;DHT22;5983;49.966;8.052;2024-01-27T08:57:14;11.10;99.90
11848;DHT22;5983;49.966;8.052;2024-01-27T08:59:42;10.90;99.90
11848;DHT22;5983;49.966;8.052;2024-01-27T09:02:09;11.00;99.90
11848;DHT22;5983;49.966;8.052;2024-01-27T09:04:36;11.20;99.90
11848;DHT22;5983;49.966;8.052;2024-01-27T09:07:04;12.20;99.90
11848;DHT22;5983;49.966;8.052;2024-01-27T09:09:30;13.90;99.90
11848;DHT22;5983;49.966;8.052;2024-01-27T09:11:57;15.70;96.80
11848;DHT22;5983;49.966;8.052;2024-01-27T09:14:24;17.40;91.50
11848;DHT22;5983;49.966;8.052;2024-01-27T09:16:52;18.80;82.40
11848;DHT22;5983;49.966;8.052;2024-01-27T09:19:19;20.00;73.90
11848;DHT22;5983;49.966;8.052;2024-01-27T09:21:46;21.00;66.50
11848;DHT22;5983;49.966;8.052;2024-01-27T09:24:12;22.00;61.20
11848;DHT22;5983;49.966;8.052;2024-01-27T09:26:39;22.90;56.80
11848;DHT22;5983;49.966;8.052;2024-01-27T09:29:06;23.70;53.50
11848;DHT22;5983;49.966;8.052;2024-01-27T09:31:33;24.50;50.10
11848;DHT22;5983;49.966;8.052;2024-01-27T09:34:01;25.20;47.80
11848;DHT22;5983;49.966;8.052;2024-01-27T09:36:28;25.70;46.00
11848;DHT22;5983;49.966;8.052;2024-01-27T09:38:54;26.20;43.30
11848;DHT22;5983;49.966;8.052;2024-01-27T09:41:21;26.60;42.40
11848;DHT22;5983;49.966;8.052;2024-01-27T09:43:48;27.00;40.70
11848;DHT22;5983;49.966;8.052;2024-01-27T09:46:15;27.50;39.80
11848;DHT22;5983;49.966;8.052;2024-01-27T09:48:43;27.80;38.90
11848;DHT22;5983;49.966;8.052;2024-01-27T09:51:12;28.10;38.10
11848;DHT22;5983;49.966;8.052;2024-01-27T09:53:38;28.50;37.10
11848;DHT22;5983;49.966;8.052;2024-01-27T09:56:06;28.80;36.30
11848;DHT22;5983;49.966;8.052;2024-01-27T09:58:33;29.20;35.10
11848;DHT22;5983;49.966;8.052;2024-01-27T10:01:01;29.40;34.30
11848;DHT22;5983;49.966;8.052;2024-01-27T10:03:28;29.60;33.70
11848;DHT22;5983;49.966;8.052;2024-01-27T10:05:56;29.80;34.00
11848;DHT22;5983;49.966;8.052;2024-01-27T10:08:25;30.10;33.50
11848;DHT22;5983;49.966;8.052;2024-01-27T10:10:53;30.20;33.50
11848;DHT22;5983;49.966;8.052;2024-01-27T10:13:21;30.60;33.10
11848;DHT22;5983;49.966;8.052;2024-01-27T10:16:01;30.90;32.90
11848;DHT22;5983;49.966;8.052;2024-01-27T10:18:28;31.40;31.70
11848;DHT22;5983;49.966;8.052;2024-01-27T10:20:55;31.70;30.50
11848;DHT22;5983;49.966;8.052;2024-01-27T10:23:22;32.00;30.10
11848;DHT22;5983;49.966;8.052;2024-01-27T10:25:50;32.40;29.90
11848;DHT22;5983;49.966;8.052;2024-01-27T10:28:18;32.80;29.70
11848;DHT22;5983;49.966;8.052;2024-01-27T10:30:45;33.10;29.30
11848;DHT22;5983;49.966;8.052;2024-01-27T10:33:13;33.20;28.80
11848;DHT22;5983;49.966;8.052;2024-01-27T10:35:40;33.40;28.60
11848;DHT22;5983;49.966;8.052;2024-01-27T10:38:07;33.70;28.30
11848;DHT22;5983;49.966;8.052;2024-01-27T10:40:35;33.90;27.90
11848;DHT22;5983;49.966;8.052;2024-01-27T10:43:03;34.20;28.10
11848;DHT22;5983;49.966;8.052;2024-01-27T10:45:34;34.60;28.20
11848;DHT22;5983;49.966;8.052;2024-01-27T10:48:02;34.90;26.80
11848;DHT22;5983;49.966;8.052;2024-01-27T10:50:29;35.10;26.70
11848;DHT22;5983;49.966;8.052;2024-01-27T10:52:57;35.10;26.40
11848;DHT22;5983;49.966;8.052;2024-01-27T10:55:26;35.30;26.50
11848;DHT22;5983;49.966;8.052;2024-01-27T10:57:53;35.30;26.60
11848;DHT22;5983;49.966;8.052;2024-01-27T11:00:24;35.50;26.50
11848;DHT22;5983;49.966;8.052;2024-01-27T11:02:52;35.60;26.10
11848;DHT22;5983;49.966;8.052;2024-01-27T11:05:24;35.80;25.90
11848;DHT22;5983;49.966;8.052;2024-01-27T11:07:53;36.10;25.50
11848;DHT22;5983;49.966;8.052;2024-01-27T11:10:20;36.30;25.50
11848;DHT22;5983;49.966;8.052;2024-01-27T11:12:48;36.30;26.30
11848;DHT22;5983;49.966;8.052;2024-01-27T11:15:16;36.30;25.50
11848;DHT22;5983;49.966;8.052;2024-01-27T11:17:44;36.30;25.50
11848;DHT22;5983;49.966;8.052;2024-01-27T11:20:12;36.30;25.30
11848;DHT22;5983;49.966;8.052;2024-01-27T11:22:41;36.30;24.90
11848;DHT22;5983;49.966;8.052;2024-01-27T11:25:14;36.40;24.80
11848;DHT22;5983;49.966;8.052;2024-01-27T11:27:42;36.50;24.90
11848;DHT22;5983;49.966;8.052;2024-01-27T11:30:24;36.70;24.50
11848;DHT22;5983;49.966;8.052;2024-01-27T11:32:54;36.90;24.10
11848;DHT22;5983;49.966;8.052;2024-01-27T11:35:21;37.10;23.60
11848;DHT22;5983;49.966;8.052;2024-01-27T11:37:48;37.20;23.80
11848;DHT22;5983;49.966;8.052;2024-01-27T11:40:15;37.30;23.80
11848;DHT22;5983;49.966;8.052;2024-01-27T11:42:42;37.40;23.20
11848;DHT22;5983;49.966;8.052;2024-01-27T11:45:09;37.60;23.20
11848;DHT22;5983;49.966;8.052;2024-01-27T11:47:36;37.70;23.00
11848;DHT22;5983;49.966;8.052;2024-01-27T11:50:04;37.70;22.80
11848;DHT22;5983;49.966;8.052;2024-01-27T11:52:33;37.80;22.40
11848;DHT22;5983;49.966;8.052;2024-01-27T11:55:00;37.80;22.20
11848;DHT22;5983;49.966;8.052;2024-01-27T11:57:27;37.80;22.80
11848;DHT22;5983;49.966;8.052;2024-01-27T11:59:54;37.70;22.40
11848;DHT22;5983;49.966;8.052;2024-01-27T12:02:21;37.90;22.40
11848;DHT22;5983;49.966;8.052;2024-01-27T12:04:48;37.90;21.80
11848;DHT22;5983;49.966;8.052;2024-01-27T12:07:17;37.60;21.80
11848;DHT22;5983;49.966;8.052;2024-01-27T12:09:45;37.60;21.80
11848;DHT22;5983;49.966;8.052;2024-01-27T12:12:12;37.90;21.80
11848;DHT22;5983;49.966;8.052;2024-01-27T12:14:39;38.10;21.80
11848;DHT22;5983;49.966;8.052;2024-01-27T12:17:08;38.30;21.50
11848;DHT22;5983;49.966;8.052;2024-01-27T12:19:36;38.50;21.30
11848;DHT22;5983;49.966;8.052;2024-01-27T12:22:03;38.00;21.20
11848;DHT22;5983;49.966;8.052;2024-01-27T12:24:32;38.10;21.30
11848;DHT22;5983;49.966;8.052;2024-01-27T12:26:59;38.10;21.40
11848;DHT22;5983;49.966;8.052;2024-01-27T12:29:26;38.10;20.60
11848;DHT22;5983;49.966;8.052;2024-01-27T12:31:54;37.80;20.10
11848;DHT22;5983;49.966;8.052;2024-01-27T12:34:25;37.40;20.40
11848;DHT22;5983;49.966;8.052;2024-01-27T12:36:52;37.10;20.90
11848;DHT22;5983;49.966;8.052;2024-01-27T12:39:20;37.40;21.60
11848;DHT22;5983;49.966;8.052;2024-01-27T12:41:48;37.80;21.60
11848;DHT22;5983;49.966;8.052;2024-01-27T12:44:15;38.00;20.40
11848;DHT22;5983;49.966;8.052;2024-01-27T12:46:41;38.20;20.10
11848;DHT22;5983;49.966;8.052;2024-01-27T12:49:08;38.10;20.00
11848;DHT22;5983;49.966;8.052;2024-01-27T12:51:35;37.90;19.90
11848;DHT22;5983;49.966;8.052;2024-01-27T12:54:02;38.10;20.10
11848;DHT22;5983;49.966;8.052;2024-01-27T12:56:29;38.00;19.40
11848;DHT22;5983;49.966;8.052;2024-01-27T12:58:57;37.70;19.50
11848;DHT22;5983;49.966;8.052;2024-01-27T13:01:24;37.40;19.60
11848;DHT22;5983;49.966;8.052;2024-01-27T13:03:51;37.30;19.50
11848;DHT22;5983;49.966;8.052;2024-01-27T13:06:17;36.80;19.00
11848;DHT22;5983;49.966;8.052;2024-01-27T13:08:45;36.40;19.30
11848;DHT22;5983;49.966;8.052;2024-01-27T13:11:12;35.60;19.20
11848;DHT22;5983;49.966;8.052;2024-01-27T13:13:39;34.50;19.10
11848;DHT22;5983;49.966;8.052;2024-01-27T13:16:08;34.30;19.90
11848;DHT22;5983;49.966;8.052;2024-01-27T13:18:35;34.60;20.10
11848;DHT22;5983;49.966;8.052;2024-01-27T13:21:02;34.80;20.00
11848;DHT22;5983;49.966;8.052;2024-01-27T13:23:31;35.10;20.00
11848;DHT22;5983;49.966;8.052;2024-01-27T13:25:58;34.60;19.70
11848;DHT22;5983;49.966;8.052;2024-01-27T13:28:25;34.70;19.90
11848;DHT22;5983;49.966;8.052;2024-01-27T13:30:51;34.00;19.90
11848;DHT22;5983;49.966;8.052;2024-01-27T13:33:19;33.60;20.20
11848;DHT22;5983;49.966;8.052;2024-01-27T13:35:46;33.30;20.50
11848;DHT22;5983;49.966;8.052;2024-01-27T13:38:13;33.30;21.00
11848;DHT22;5983;49.966;8.052;2024-01-27T13:40:41;33.40;21.10
11848;DHT22;5983;49.966;8.052;2024-01-27T13:43:08;33.50;21.90
11848;DHT22;5983;49.966;8.052;2024-01-27T13:45:34;32.90;22.00
11848;DHT22;5983;49.966;8.052;2024-01-27T13:48:01;32.30;22.50
11848;DHT22;5983;49.966;8.052;2024-01-27T13:50:30;31.90;22.80
11848;DHT22;5983;49.966;8.052;2024-01-27T13:52:57;31.10;23.20
11848;DHT22;5983;49.966;8.052;2024-01-27T13:55:24;30.40;23.50
11848;DHT22;5983;49.966;8.052;2024-01-27T13:57:51;29.70;24.20
11848;DHT22;5983;49.966;8.052;2024-01-27T14:00:18;28.60;24.70
11848;DHT22;5983;49.966;8.052;2024-01-27T14:02:46;27.50;26.10
11848;DHT22;5983;49.966;8.052;2024-01-27T14:05:12;26.40;26.40
11848;DHT22;5983;49.966;8.052;2024-01-27T14:07:41;25.20;27.70
11848;DHT22;5983;49.966;8.052;2024-01-27T14:10:08;24.00;29.00
11848;DHT22;5983;49.966;8.052;2024-01-27T14:12:35;22.60;30.10
11848;DHT22;5983;49.966;8.052;2024-01-27T14:15:03;21.50;31.40
11848;DHT22;5983;49.966;8.052;2024-01-27T14:17:32;20.60;32.20
11848;DHT22;5983;49.966;8.052;2024-01-27T14:19:59;19.80;33.10
11848;DHT22;5983;49.966;8.052;2024-01-27T14:22:26;19.30;33.90
11848;DHT22;5983;49.966;8.052;2024-01-27T14:24:55;19.10;34.60
11848;DHT22;5983;49.966;8.052;2024-01-27T14:27:22;19.00;35.00
11848;DHT22;5983;49.966;8.052;2024-01-27T14:29:51;18.90;35.70
11848;DHT22;5983;49.966;8.052;2024-01-27T14:32:18;19.10;35.80
11848;DHT22;5983;49.966;8.052;2024-01-27T14:34:45;19.30;36.00
11848;DHT22;5983;49.966;8.052;2024-01-27T14:37:12;19.80;35.90
11848;DHT22;5983;49.966;8.052;2024-01-27T14:39:41;20.70;34.90
11848;DHT22;5983;49.966;8.052;2024-01-27T14:42:11;21.30;34.00
11848;DHT22;5983;49.966;8.052;2024-01-27T14:44:38;21.30;33.80
11848;DHT22;5983;49.966;8.052;2024-01-27T14:47:05;20.90;34.20
11848;DHT22;5983;49.966;8.052;2024-01-27T14:49:34;20.10;34.90
11848;DHT22;5983;49.966;8.052;2024-01-27T14:52:03;18.90;36.40
11848;DHT22;5983;49.966;8.052;2024-01-27T14:54:31;17.80;37.40
11848;DHT22;5983;49.966;8.052;2024-01-27T14:56:57;16.70;39.10
11848;DHT22;5983;49.966;8.052;2024-01-27T14:59:26;15.50;41.10
11848;DHT22;5983;49.966;8.052;2024-01-27T15:01:54;14.50;42.80
11848;DHT22;5983;49.966;8.052;2024-01-27T15:04:22;13.70;44.60
11848;DHT22;5983;49.966;8.052;2024-01-27T15:06:51;13.20;46.20
11848;DHT22;5983;49.966;8.052;2024-01-27T15:09:18;12.80;47.50
11848;DHT22;5983;49.966;8.052;2024-01-27T15:11:45;12.50;48.80
11848;DHT22;5983;49.966;8.052;2024-01-27T15:14:12;12.20;49.70
11848;DHT22;5983;49.966;8.052;2024-01-27T15:16:40;11.90;50.80
11848;DHT22;5983;49.966;8.052;2024-01-27T15:19:07;11.60;51.60
11848;DHT22;5983;49.966;8.052;2024-01-27T15:21:37;11.30;52.40
11848;DHT22;5983;49.966;8.052;2024-01-27T15:24:04;11.00;53.30
11848;DHT22;5983;49.966;8.052;2024-01-27T15:26:31;10.80;54.00
11848;DHT22;5983;49.966;8.052;2024-01-27T15:28:58;10.70;55.00
11848;DHT22;5983;49.966;8.052;2024-01-27T15:31:25;10.50;55.60
11848;DHT22;5983;49.966;8.052;2024-01-27T15:33:53;10.30;57.00
11848;DHT22;5983;49.966;8.052;2024-01-27T15:36:19;10.20;56.80
11848;DHT22;5983;49.966;8.052;2024-01-27T15:38:46;10.20;57.60
11848;DHT22;5983;49.966;8.052;2024-01-27T15:41:13;10.10;58.50
11848;DHT22;5983;49.966;8.052;2024-01-27T15:43:44;10.00;59.00
11848;DHT22;5983;49.966;8.052;2024-01-27T15:46:12;9.80;60.70
11848;DHT22;5983;49.966;8.052;2024-01-27T15:48:39;9.70;61.80
11848;DHT22;5983;49.966;8.052;2024-01-27T15:51:07;9.60;62.90
11848;DHT22;5983;49.966;8.052;2024-01-27T15:53:34;9.40;64.00
11848;DHT22;5983;49.966;8.052;2024-01-27T15:56:01;9.20;65.90
11848;DHT22;5983;49.966;8.052;2024-01-27T15:58:28;9.10;67.30
11848;DHT22;5983;49.966;8.052;2024-01-27T16:00:55;8.90;69.10
11848;DHT22;5983;49.966;8.052;2024-01-27T16:03:22;8.80;71.20
11848;DHT22;5983;49.966;8.052;2024-01-27T16:05:49;8.70;73.50
11848;DHT22;5983;49.966;8.052;2024-01-27T16:08:17;8.60;75.80